sensor_id;sensor_type;location;lat;lon;timestamp;P1;durP1;ratioP1;P2;durP2;ratioP2
1999;SDS011;1001;48.87406500;9.59633600;2022-09-20T00:00:40;1.77;;;1.67;;
1999;SDS011;1001;48.87406500;9.59633600;2022-09-20T00:03:08;5.87;;;2.00;;
1999;SDS011;1001;48.87406500;9.59633600;2022-09-20T00:05:35;3.70;;;1.87;;
1999;SDS011;1001;48.87406500;9.59633600;2022-09-20T00:08:03;3.17;;;2.30;;
1999;SDS011;1001;48.87406500;9.59633600;2022-09-20T00:10:32;2.67;;;2.13;;
1999;SDS011;1001;48.87406500;9.59633600;2022-09-20T00:13:02;5.00;;;2.93;;
1999;SDS011;1001;48.87406500;9.59633600;2022-09-20T00:15:29;4.20;;;2.37;;
1999;SDS011;1001;48.87406500;9.59633600;2022-09-20T00:17:57;4.80;;;2.57;;
1999;SDS011;1001;48.87406500;9.59633600;2022-09-20T00:20:24;5.07;;;2.77;;
1999;SDS011;1001;48.87406500;9.59633600;2022-09-20T00:22:51;3.10;;;2.80;;
1999;SDS011;1001;48.87406500;9.59633600;2022-09-20T00:25:18;2.97;;;2.27;;
1999;SDS011;1001;48.87406500;9.59633600;2022-09-20T00:27:46;2.77;;;2.47;;
1999;SDS011;1001;48.87406500;9.59633600;2022-09-20T00:30:13;3.67;;;2.47;;
1999;SDS011;1001;48.87406500;9.59633600;2022-09-20T00:32:39;4.43;;;2.00;;
1999;SDS011;1001;48.87406500;9.59633600;2022-09-20T00:35:08;6.03;;;2.20;;
1999;SDS011;1001;48.87406500;9.59633600;2022-09-20T00:37:35;3.40;;;2.33;;
1999;SDS011;1001;48.87406500;9.59633600;2022-09-20T00:40:04;2.43;;;2.03;;
1999;SDS011;1001;48.87406500;9.59633600;2022-09-20T00:42:32;3.73;;;2.27;;
1999;SDS011;1001;48.87406500;9.59633600;2022-09-20T00:44:59;2.97;;;2.53;;
1999;SDS011;1001;48.87406500;9.59633600;2022-09-20T00:47:35;7.27;;;2.67;;
1999;SDS011;1001;48.87406500;9.59633600;2022-09-20T00:50:13;2.97;;;2.43;;
1999;SDS011;1001;48.87406500;9.59633600;2022-09-20T00:52:48;3.63;;;2.70;;
1999;SDS011;1001;48.87406500;9.59633600;2022-09-20T00:55:19;5.77;;;2.87;;
1999;SDS011;1001;48.87406500;9.59633600;2022-09-20T00:57:47;4.93;;;3.20;;
1999;SDS011;1001;48.87406500;9.59633600;2022-09-20T01:00:14;6.53;;;3.43;;
1999;SDS011;1001;48.87406500;9.59633600;2022-09-20T01:02:41;7.03;;;3.30;;
1999;SDS011;1001;48.87406500;9.59633600;2022-09-20T01:05:14;4.40;;;3.63;;
1999;SDS011;1001;48.87406500;9.59633600;2022-09-20T01:07:43;5.67;;;3.23;;
1999;SDS011;1001;48.87406500;9.59633600;2022-09-20T01:10:12;6.63;;;3.43;;
1999;SDS011;1001;48.87406500;9.59633600;2022-09-20T01:12:39;8.20;;;4.70;;
1999;SDS011;1001;48.87406500;9.59633600;2022-09-20T01:15:10;10.40;;;5.10;;
1999;SDS011;1001;48.87406500;9.59633600;2022-09-20T01:17:39;8.23;;;4.70;;
1999;SDS011;1001;48.87406500;9.59633600;2022-09-20T01:20:10;6.80;;;5.10;;
1999;SDS011;1001;48.87406500;9.59633600;2022-09-20T01:28:52;7.80;;;5.10;;
1999;SDS011;1001;48.87406500;9.59633600;2022-09-20T01:31:27;7.00;;;4.80;;
1999;SDS011;1001;48.87406500;9.59633600;2022-09-20T01:33:59;9.80;;;4.80;;
1999;SDS011;1001;48.87406500;9.59633600;2022-09-20T01:36:30;7.53;;;5.30;;
1999;SDS011;1001;48.87406500;9.59633600;2022-09-20T01:39:05;11.03;;;6.17;;
1999;SDS011;1001;48.87406500;9.59633600;2022-09-20T01:41:37;7.77;;;5.27;;
1999;SDS011;1001;48.87406500;9.59633600;2022-09-20T01:44:11;8.23;;;5.60;;
1999;SDS011;1001;48.87406500;9.59633600;2022-09-20T01:46:43;7.10;;;5.43;;
1999;SDS011;1001;48.87406500;9.59633600;2022-09-20T01:49:17;5.83;;;4.90;;
1999;SDS011;1001;48.87406500;9.59633600;2022-09-20T01:55:06;10.57;;;5.63;;
1999;SDS011;1001;48.87406500;9.59633600;2022-09-20T01:58:02;6.30;;;4.70;;
1999;SDS011;1001;48.87406500;9.59633600;2022-09-20T02:00:47;9.17;;;4.80;;
1999;SDS011;1001;48.87406500;9.59633600;2022-09-20T02:03:49;7.60;;;4.70;;
1999;SDS011;1001;48.87406500;9.59633600;2022-09-20T02:06:38;5.70;;;4.77;;
1999;SDS011;1001;48.87406500;9.59633600;2022-09-20T02:12:37;6.83;;;4.20;;
1999;SDS011;1001;48.87406500;9.59633600;2022-09-20T02:15:17;7.50;;;4.47;;
1999;SDS011;1001;48.87406500;9.59633600;2022-09-20T02:18:06;6.20;;;4.10;;
1999;SDS011;1001;48.87406500;9.59633600;2022-09-20T02:20:46;5.27;;;4.00;;
1999;SDS011;1001;48.87406500;9.59633600;2022-09-20T02:23:26;5.60;;;3.73;;
1999;SDS011;1001;48.87406500;9.59633600;2022-09-20T02:26:08;6.50;;;3.67;;
1999;SDS011;1001;48.87406500;9.59633600;2022-09-20T02:28:50;4.10;;;3.70;;
1999;SDS011;1001;48.87406500;9.59633600;2022-09-20T02:31:33;8.63;;;4.37;;
1999;SDS011;1001;48.87406500;9.59633600;2022-09-20T02:37:38;6.93;;;4.00;;
1999;SDS011;1001;48.87406500;9.59633600;2022-09-20T02:40:26;7.87;;;4.03;;
1999;SDS011;1001;48.87406500;9.59633600;2022-09-20T02:43:20;9.63;;;4.30;;
1999;SDS011;1001;48.87406500;9.59633600;2022-09-20T02:45:57;7.80;;;4.93;;
1999;SDS011;1001;48.87406500;9.59633600;2022-09-20T02:48:33;5.13;;;4.13;;
1999;SDS011;1001;48.87406500;9.59633600;2022-09-20T02:51:11;5.10;;;4.27;;
1999;SDS011;1001;48.87406500;9.59633600;2022-09-20T02:53:46;5.47;;;3.50;;
1999;SDS011;1001;48.87406500;9.59633600;2022-09-20T02:56:21;8.53;;;4.53;;
1999;SDS011;1001;48.87406500;9.59633600;2022-09-20T02:58:58;5.87;;;4.17;;
1999;SDS011;1001;48.87406500;9.59633600;2022-09-20T03:01:34;10.93;;;4.47;;
1999;SDS011;1001;48.87406500;9.59633600;2022-09-20T03:04:13;9.80;;;4.97;;
1999;SDS011;1001;48.87406500;9.59633600;2022-09-20T03:06:50;8.23;;;4.70;;
1999;SDS011;1001;48.87406500;9.59633600;2022-09-20T03:09:25;6.10;;;3.93;;
1999;SDS011;1001;48.87406500;9.59633600;2022-09-20T03:12:01;8.00;;;4.30;;
1999;SDS011;1001;48.87406500;9.59633600;2022-09-20T03:14:36;7.07;;;4.00;;
1999;SDS011;1001;48.87406500;9.59633600;2022-09-20T03:17:11;7.83;;;3.97;;
1999;SDS011;1001;48.87406500;9.59633600;2022-09-20T03:19:49;6.73;;;4.10;;
1999;SDS011;1001;48.87406500;9.59633600;2022-09-20T03:22:35;6.33;;;3.73;;
1999;SDS011;1001;48.87406500;9.59633600;2022-09-20T03:25:17;9.00;;;3.70;;
1999;SDS011;1001;48.87406500;9.59633600;2022-09-20T03:28:05;5.00;;;3.60;;
1999;SDS011;1001;48.87406500;9.59633600;2022-09-20T03:30:45;5.37;;;3.83;;
1999;SDS011;1001;48.87406500;9.59633600;2022-09-20T03:33:24;8.10;;;4.53;;
1999;SDS011;1001;48.87406500;9.59633600;2022-09-20T03:36:02;6.60;;;3.87;;
1999;SDS011;1001;48.87406500;9.59633600;2022-09-20T03:38:43;7.60;;;3.97;;
1999;SDS011;1001;48.87406500;9.59633600;2022-09-20T03:41:30;5.50;;;3.60;;
1999;SDS011;1001;48.87406500;9.59633600;2022-09-20T03:47:36;8.00;;;4.40;;
1999;SDS011;1001;48.87406500;9.59633600;2022-09-20T03:50:22;9.37;;;4.73;;
1999;SDS011;1001;48.87406500;9.59633600;2022-09-20T03:53:12;8.70;;;4.87;;
1999;SDS011;1001;48.87406500;9.59633600;2022-09-20T03:56:06;9.67;;;5.23;;
1999;SDS011;1001;48.87406500;9.59633600;2022-09-20T03:58:46;8.40;;;5.90;;
1999;SDS011;1001;48.87406500;9.59633600;2022-09-20T04:01:35;11.50;;;4.80;;
1999;SDS011;1001;48.87406500;9.59633600;2022-09-20T04:04:12;7.47;;;5.10;;
1999;SDS011;1001;48.87406500;9.59633600;2022-09-20T04:06:55;7.53;;;5.10;;
1999;SDS011;1001;48.87406500;9.59633600;2022-09-20T04:09:42;10.17;;;5.30;;
1999;SDS011;1001;48.87406500;9.59633600;2022-09-20T04:12:24;9.53;;;5.17;;
1999;SDS011;1001;48.87406500;9.59633600;2022-09-20T04:14:57;11.27;;;5.27;;
1999;SDS011;1001;48.87406500;9.59633600;2022-09-20T04:17:43;8.07;;;5.10;;
1999;SDS011;1001;48.87406500;9.59633600;2022-09-20T04:20:18;8.10;;;5.13;;
1999;SDS011;1001;48.87406500;9.59633600;2022-09-20T04:22:53;6.80;;;4.93;;
1999;SDS011;1001;48.87406500;9.59633600;2022-09-20T04:25:26;9.93;;;6.00;;
1999;SDS011;1001;48.87406500;9.59633600;2022-09-20T04:27:57;7.20;;;4.93;;
1999;SDS011;1001;48.87406500;9.59633600;2022-09-20T04:30:30;5.40;;;4.67;;
1999;SDS011;1001;48.87406500;9.59633600;2022-09-20T04:33:03;9.33;;;5.27;;
1999;SDS011;1001;48.87406500;9.59633600;2022-09-20T04:35:39;9.67;;;5.77;;
1999;SDS011;1001;48.87406500;9.59633600;2022-09-20T04:38:29;9.23;;;6.00;;
1999;SDS011;1001;48.87406500;9.59633600;2022-09-20T04:41:11;9.33;;;4.93;;
1999;SDS011;1001;48.87406500;9.59633600;2022-09-20T04:43:52;12.33;;;5.50;;
1999;SDS011;1001;48.87406500;9.59633600;2022-09-20T04:50:04;14.23;;;6.10;;
1999;SDS011;1001;48.87406500;9.59633600;2022-09-20T04:53:01;8.27;;;5.83;;
1999;SDS011;1001;48.87406500;9.59633600;2022-09-20T04:55:53;12.03;;;6.30;;
1999;SDS011;1001;48.87406500;9.59633600;2022-09-20T04:58:35;11.50;;;6.67;;
1999;SDS011;1001;48.87406500;9.59633600;2022-09-20T05:01:23;14.33;;;6.90;;
1999;SDS011;1001;48.87406500;9.59633600;2022-09-20T05:04:32;8.67;;;6.53;;
1999;SDS011;1001;48.87406500;9.59633600;2022-09-20T05:07:33;8.73;;;6.17;;
1999;SDS011;1001;48.87406500;9.59633600;2022-09-20T05:10:35;9.03;;;6.37;;
1999;SDS011;1001;48.87406500;9.59633600;2022-09-20T05:13:17;12.20;;;7.07;;
1999;SDS011;1001;48.87406500;9.59633600;2022-09-20T05:16:03;10.83;;;6.43;;
1999;SDS011;1001;48.87406500;9.59633600;2022-09-20T05:18:40;16.17;;;6.27;;
1999;SDS011;1001;48.87406500;9.59633600;2022-09-20T05:21:22;8.53;;;6.03;;
1999;SDS011;1001;48.87406500;9.59633600;2022-09-20T05:24:15;9.80;;;6.23;;
1999;SDS011;1001;48.87406500;9.59633600;2022-09-20T05:26:55;12.50;;;7.13;;
1999;SDS011;1001;48.87406500;9.59633600;2022-09-20T05:29:32;9.23;;;6.60;;
1999;SDS011;1001;48.87406500;9.59633600;2022-09-20T05:32:07;9.83;;;6.63;;
1999;SDS011;1001;48.87406500;9.59633600;2022-09-20T05:34:45;11.40;;;7.00;;
1999;SDS011;1001;48.87406500;9.59633600;2022-09-20T05:37:21;9.87;;;6.77;;
1999;SDS011;1001;48.87406500;9.59633600;2022-09-20T05:39:58;11.87;;;7.63;;
1999;SDS011;1001;48.87406500;9.59633600;2022-09-20T05:42:33;14.27;;;7.80;;
1999;SDS011;1001;48.87406500;9.59633600;2022-09-20T05:45:15;13.20;;;7.40;;
1999;SDS011;1001;48.87406500;9.59633600;2022-09-20T05:47:55;8.87;;;7.70;;
1999;SDS011;1001;48.87406500;9.59633600;2022-09-20T05:50:32;15.03;;;7.80;;
1999;SDS011;1001;48.87406500;9.59633600;2022-09-20T05:53:22;10.77;;;7.23;;
1999;SDS011;1001;48.87406500;9.59633600;2022-09-20T05:56:10;14.77;;;7.50;;
1999;SDS011;1001;48.87406500;9.59633600;2022-09-20T05:58:46;13.13;;;7.80;;
1999;SDS011;1001;48.87406500;9.59633600;2022-09-20T06:01:22;16.77;;;9.77;;
1999;SDS011;1001;48.87406500;9.59633600;2022-09-20T06:03:53;10.00;;;7.67;;
1999;SDS011;1001;48.87406500;9.59633600;2022-09-20T06:06:33;11.47;;;7.97;;
1999;SDS011;1001;48.87406500;9.59633600;2022-09-20T06:09:26;13.87;;;8.10;;
1999;SDS011;1001;48.87406500;9.59633600;2022-09-20T06:12:05;13.40;;;8.87;;
1999;SDS011;1001;48.87406500;9.59633600;2022-09-20T06:14:44;16.20;;;9.13;;
1999;SDS011;1001;48.87406500;9.59633600;2022-09-20T06:17:17;17.77;;;9.00;;
1999;SDS011;1001;48.87406500;9.59633600;2022-09-20T06:19:52;16.30;;;10.50;;
1999;SDS011;1001;48.87406500;9.59633600;2022-09-20T06:22:32;14.20;;;11.03;;
1999;SDS011;1001;48.87406500;9.59633600;2022-09-20T06:25:03;17.50;;;10.27;;
1999;SDS011;1001;48.87406500;9.59633600;2022-09-20T06:27:42;18.20;;;11.30;;
1999;SDS011;1001;48.87406500;9.59633600;2022-09-20T06:30:13;18.10;;;10.53;;
1999;SDS011;1001;48.87406500;9.59633600;2022-09-20T06:32:51;19.30;;;11.50;;
1999;SDS011;1001;48.87406500;9.59633600;2022-09-20T06:35:23;15.40;;;11.60;;
1999;SDS011;1001;48.87406500;9.59633600;2022-09-20T06:37:56;22.40;;;10.57;;
1999;SDS011;1001;48.87406500;9.59633600;2022-09-20T06:40:50;19.93;;;10.80;;
1999;SDS011;1001;48.87406500;9.59633600;2022-09-20T06:43:46;19.37;;;10.50;;
1999;SDS011;1001;48.87406500;9.59633600;2022-09-20T06:46:14;17.10;;;11.63;;
1999;SDS011;1001;48.87406500;9.59633600;2022-09-20T06:48:41;13.30;;;10.33;;
1999;SDS011;1001;48.87406500;9.59633600;2022-09-20T06:51:08;13.30;;;10.57;;
1999;SDS011;1001;48.87406500;9.59633600;2022-09-20T06:53:38;11.97;;;9.23;;
1999;SDS011;1001;48.87406500;9.59633600;2022-09-20T06:56:06;11.53;;;9.47;;
1999;SDS011;1001;48.87406500;9.59633600;2022-09-20T06:58:34;11.17;;;8.80;;
1999;SDS011;1001;48.87406500;9.59633600;2022-09-20T07:01:01;15.93;;;8.83;;
1999;SDS011;1001;48.87406500;9.59633600;2022-09-20T07:03:27;13.57;;;9.17;;
1999;SDS011;1001;48.87406500;9.59633600;2022-09-20T07:05:55;10.43;;;7.00;;
1999;SDS011;1001;48.87406500;9.59633600;2022-09-20T07:08:22;11.80;;;7.70;;
1999;SDS011;1001;48.87406500;9.59633600;2022-09-20T07:10:50;8.63;;;6.47;;
1999;SDS011;1001;48.87406500;9.59633600;2022-09-20T07:13:17;9.43;;;7.20;;
1999;SDS011;1001;48.87406500;9.59633600;2022-09-20T07:15:45;9.93;;;7.20;;
1999;SDS011;1001;48.87406500;9.59633600;2022-09-20T07:18:12;10.53;;;6.90;;
1999;SDS011;1001;48.87406500;9.59633600;2022-09-20T07:20:38;8.90;;;5.67;;
1999;SDS011;1001;48.87406500;9.59633600;2022-09-20T07:23:05;9.27;;;6.53;;
1999;SDS011;1001;48.87406500;9.59633600;2022-09-20T07:25:32;8.70;;;7.07;;
1999;SDS011;1001;48.87406500;9.59633600;2022-09-20T07:28:01;10.53;;;7.60;;
1999;SDS011;1001;48.87406500;9.59633600;2022-09-20T07:30:28;9.50;;;6.17;;
1999;SDS011;1001;48.87406500;9.59633600;2022-09-20T07:32:54;7.50;;;6.00;;
1999;SDS011;1001;48.87406500;9.59633600;2022-09-20T07:35:21;9.63;;;6.13;;
1999;SDS011;1001;48.87406500;9.59633600;2022-09-20T07:37:47;8.63;;;5.70;;
1999;SDS011;1001;48.87406500;9.59633600;2022-09-20T07:40:21;12.87;;;5.97;;
1999;SDS011;1001;48.87406500;9.59633600;2022-09-20T07:42:49;8.70;;;5.83;;
1999;SDS011;1001;48.87406500;9.59633600;2022-09-20T07:45:17;10.43;;;6.37;;
1999;SDS011;1001;48.87406500;9.59633600;2022-09-20T07:47:44;8.50;;;5.10;;
1999;SDS011;1001;48.87406500;9.59633600;2022-09-20T07:50:10;10.77;;;5.60;;
1999;SDS011;1001;48.87406500;9.59633600;2022-09-20T07:52:37;7.13;;;4.57;;
1999;SDS011;1001;48.87406500;9.59633600;2022-09-20T07:55:04;5.43;;;4.93;;
1999;SDS011;1001;48.87406500;9.59633600;2022-09-20T07:57:33;10.73;;;5.50;;
1999;SDS011;1001;48.87406500;9.59633600;2022-09-20T08:00:01;8.20;;;5.77;;
1999;SDS011;1001;48.87406500;9.59633600;2022-09-20T08:02:32;10.30;;;6.17;;
1999;SDS011;1001;48.87406500;9.59633600;2022-09-20T08:04:58;10.70;;;7.13;;
1999;SDS011;1001;48.87406500;9.59633600;2022-09-20T08:07:25;5.57;;;5.03;;
1999;SDS011;1001;48.87406500;9.59633600;2022-09-20T08:09:52;14.37;;;8.17;;
1999;SDS011;1001;48.87406500;9.59633600;2022-09-20T08:12:18;10.90;;;7.13;;
1999;SDS011;1001;48.87406500;9.59633600;2022-09-20T08:14:46;11.50;;;5.70;;
1999;SDS011;1001;48.87406500;9.59633600;2022-09-20T08:17:12;11.80;;;5.60;;
1999;SDS011;1001;48.87406500;9.59633600;2022-09-20T08:19:40;11.83;;;5.10;;
1999;SDS011;1001;48.87406500;9.59633600;2022-09-20T08:22:08;7.00;;;5.03;;
1999;SDS011;1001;48.87406500;9.59633600;2022-09-20T08:24:36;8.20;;;5.30;;
1999;SDS011;1001;48.87406500;9.59633600;2022-09-20T08:27:03;9.13;;;4.67;;
1999;SDS011;1001;48.87406500;9.59633600;2022-09-20T08:29:30;8.30;;;4.87;;
1999;SDS011;1001;48.87406500;9.59633600;2022-09-20T08:31:56;11.50;;;4.90;;
1999;SDS011;1001;48.87406500;9.59633600;2022-09-20T08:34:25;11.07;;;5.23;;
1999;SDS011;1001;48.87406500;9.59633600;2022-09-20T08:36:53;11.03;;;4.90;;
1999;SDS011;1001;48.87406500;9.59633600;2022-09-20T08:39:20;5.93;;;4.87;;
1999;SDS011;1001;48.87406500;9.59633600;2022-09-20T08:41:50;8.23;;;5.87;;
1999;SDS011;1001;48.87406500;9.59633600;2022-09-20T08:44:21;5.60;;;3.67;;
1999;SDS011;1001;48.87406500;9.59633600;2022-09-20T08:46:51;7.43;;;5.00;;
1999;SDS011;1001;48.87406500;9.59633600;2022-09-20T08:49:26;5.63;;;4.03;;
1999;SDS011;1001;48.87406500;9.59633600;2022-09-20T08:51:56;6.10;;;3.53;;
1999;SDS011;1001;48.87406500;9.59633600;2022-09-20T08:54:24;5.97;;;4.13;;
1999;SDS011;1001;48.87406500;9.59633600;2022-09-20T08:56:51;7.73;;;3.70;;
1999;SDS011;1001;48.87406500;9.59633600;2022-09-20T08:59:19;10.33;;;3.53;;
1999;SDS011;1001;48.87406500;9.59633600;2022-09-20T09:01:50;5.40;;;3.27;;
1999;SDS011;1001;48.87406500;9.59633600;2022-09-20T09:04:18;4.77;;;3.23;;
1999;SDS011;1001;48.87406500;9.59633600;2022-09-20T09:06:47;4.40;;;2.70;;
1999;SDS011;1001;48.87406500;9.59633600;2022-09-20T09:09:18;6.40;;;2.73;;
1999;SDS011;1001;48.87406500;9.59633600;2022-09-20T09:11:47;11.73;;;5.30;;
1999;SDS011;1001;48.87406500;9.59633600;2022-09-20T09:14:19;10.27;;;5.53;;
1999;SDS011;1001;48.87406500;9.59633600;2022-09-20T09:17:07;5.93;;;5.33;;
1999;SDS011;1001;48.87406500;9.59633600;2022-09-20T09:19:41;10.33;;;4.10;;
1999;SDS011;1001;48.87406500;9.59633600;2022-09-20T09:22:09;8.63;;;3.33;;
1999;SDS011;1001;48.87406500;9.59633600;2022-09-20T09:24:43;7.10;;;3.40;;
1999;SDS011;1001;48.87406500;9.59633600;2022-09-20T09:27:13;5.50;;;2.80;;
1999;SDS011;1001;48.87406500;9.59633600;2022-09-20T09:29:47;5.20;;;2.87;;
1999;SDS011;1001;48.87406500;9.59633600;2022-09-20T09:32:20;10.60;;;2.30;;
1999;SDS011;1001;48.87406500;9.59633600;2022-09-20T09:34:49;10.93;;;2.47;;
1999;SDS011;1001;48.87406500;9.59633600;2022-09-20T09:37:20;5.80;;;2.07;;
1999;SDS011;1001;48.87406500;9.59633600;2022-09-20T09:40:00;6.60;;;2.70;;
1999;SDS011;1001;48.87406500;9.59633600;2022-09-20T09:42:33;6.00;;;2.77;;
1999;SDS011;1001;48.87406500;9.59633600;2022-09-20T09:45:09;5.83;;;2.40;;
1999;SDS011;1001;48.87406500;9.59633600;2022-09-20T09:47:37;4.37;;;2.43;;
1999;SDS011;1001;48.87406500;9.59633600;2022-09-20T09:50:04;3.90;;;2.43;;
1999;SDS011;1001;48.87406500;9.59633600;2022-09-20T09:52:31;6.27;;;2.43;;
1999;SDS011;1001;48.87406500;9.59633600;2022-09-20T09:55:01;8.57;;;2.30;;
1999;SDS011;1001;48.87406500;9.59633600;2022-09-20T09:57:31;6.80;;;2.57;;
1999;SDS011;1001;48.87406500;9.59633600;2022-09-20T10:00:10;3.37;;;1.93;;
1999;SDS011;1001;48.87406500;9.59633600;2022-09-20T10:02:46;7.70;;;1.70;;
1999;SDS011;1001;48.87406500;9.59633600;2022-09-20T10:05:26;7.03;;;2.00;;
1999;SDS011;1001;48.87406500;9.59633600;2022-09-20T10:08:01;5.83;;;1.87;;
1999;SDS011;1001;48.87406500;9.59633600;2022-09-20T10:10:42;5.43;;;2.27;;
1999;SDS011;1001;48.87406500;9.59633600;2022-09-20T10:13:20;12.03;;;2.73;;
1999;SDS011;1001;48.87406500;9.59633600;2022-09-20T10:15:54;6.67;;;2.07;;
1999;SDS011;1001;48.87406500;9.59633600;2022-09-20T10:18:33;2.80;;;1.90;;
1999;SDS011;1001;48.87406500;9.59633600;2022-09-20T10:21:14;5.30;;;1.87;;
1999;SDS011;1001;48.87406500;9.59633600;2022-09-20T10:24:00;3.43;;;1.40;;
1999;SDS011;1001;48.87406500;9.59633600;2022-09-20T10:26:43;8.13;;;2.10;;
1999;SDS011;1001;48.87406500;9.59633600;2022-09-20T10:29:26;4.70;;;1.77;;
1999;SDS011;1001;48.87406500;9.59633600;2022-09-20T10:32:04;5.47;;;1.57;;
1999;SDS011;1001;48.87406500;9.59633600;2022-09-20T10:35:02;4.90;;;1.50;;
1999;SDS011;1001;48.87406500;9.59633600;2022-09-20T10:37:47;4.90;;;1.70;;
1999;SDS011;1001;48.87406500;9.59633600;2022-09-20T10:40:39;6.30;;;1.57;;
1999;SDS011;1001;48.87406500;9.59633600;2022-09-20T10:43:38;4.50;;;1.70;;
1999;SDS011;1001;48.87406500;9.59633600;2022-09-20T10:46:18;2.50;;;1.43;;
1999;SDS011;1001;48.87406500;9.59633600;2022-09-20T10:48:54;5.47;;;1.53;;
1999;SDS011;1001;48.87406500;9.59633600;2022-09-20T10:51:30;6.13;;;1.70;;
1999;SDS011;1001;48.87406500;9.59633600;2022-09-20T10:54:09;4.47;;;1.47;;
1999;SDS011;1001;48.87406500;9.59633600;2022-09-20T10:56:51;5.53;;;2.00;;
1999;SDS011;1001;48.87406500;9.59633600;2022-09-20T10:59:33;5.13;;;1.63;;
1999;SDS011;1001;48.87406500;9.59633600;2022-09-20T11:02:16;4.17;;;1.87;;
1999;SDS011;1001;48.87406500;9.59633600;2022-09-20T11:05:07;3.90;;;2.00;;
1999;SDS011;1001;48.87406500;9.59633600;2022-09-20T11:07:49;4.37;;;1.77;;
1999;SDS011;1001;48.87406500;9.59633600;2022-09-20T11:10:23;3.93;;;1.83;;
1999;SDS011;1001;48.87406500;9.59633600;2022-09-20T11:12:54;3.80;;;1.47;;
1999;SDS011;1001;48.87406500;9.59633600;2022-09-20T11:15:26;7.00;;;1.60;;
1999;SDS011;1001;48.87406500;9.59633600;2022-09-20T11:17:59;4.77;;;1.73;;
1999;SDS011;1001;48.87406500;9.59633600;2022-09-20T11:20:35;2.27;;;1.23;;
1999;SDS011;1001;48.87406500;9.59633600;2022-09-20T11:23:09;7.20;;;1.70;;
1999;SDS011;1001;48.87406500;9.59633600;2022-09-20T11:25:41;7.40;;;1.37;;
1999;SDS011;1001;48.87406500;9.59633600;2022-09-20T11:28:12;4.73;;;1.60;;
1999;SDS011;1001;48.87406500;9.59633600;2022-09-20T11:30:49;3.67;;;1.17;;
1999;SDS011;1001;48.87406500;9.59633600;2022-09-20T11:33:23;3.10;;;1.53;;
1999;SDS011;1001;48.87406500;9.59633600;2022-09-20T11:35:54;1.83;;;1.00;;
1999;SDS011;1001;48.87406500;9.59633600;2022-09-20T11:38:24;2.97;;;1.60;;
1999;SDS011;1001;48.87406500;9.59633600;2022-09-20T11:40:56;4.90;;;1.70;;
1999;SDS011;1001;48.87406500;9.59633600;2022-09-20T11:43:27;6.20;;;1.70;;
1999;SDS011;1001;48.87406500;9.59633600;2022-09-20T11:45:57;3.30;;;1.60;;
1999;SDS011;1001;48.87406500;9.59633600;2022-09-20T11:48:27;2.97;;;1.60;;
1999;SDS011;1001;48.87406500;9.59633600;2022-09-20T11:51:06;6.00;;;1.40;;
1999;SDS011;1001;48.87406500;9.59633600;2022-09-20T11:53:54;5.17;;;1.90;;
1999;SDS011;1001;48.87406500;9.59633600;2022-09-20T11:56:33;6.60;;;1.40;;
1999;SDS011;1001;48.87406500;9.59633600;2022-09-20T11:59:00;5.63;;;1.77;;
1999;SDS011;1001;48.87406500;9.59633600;2022-09-20T12:01:29;6.10;;;1.23;;
1999;SDS011;1001;48.87406500;9.59633600;2022-09-20T12:03:58;2.40;;;1.13;;
1999;SDS011;1001;48.87406500;9.59633600;2022-09-20T12:06:28;2.93;;;1.10;;
1999;SDS011;1001;48.87406500;9.59633600;2022-09-20T12:08:58;6.40;;;1.67;;
1999;SDS011;1001;48.87406500;9.59633600;2022-09-20T12:11:28;1.77;;;0.90;;
1999;SDS011;1001;48.87406500;9.59633600;2022-09-20T12:14:00;3.47;;;1.60;;
1999;SDS011;1001;48.87406500;9.59633600;2022-09-20T12:16:41;3.80;;;1.43;;
1999;SDS011;1001;48.87406500;9.59633600;2022-09-20T12:19:10;3.47;;;1.20;;
1999;SDS011;1001;48.87406500;9.59633600;2022-09-20T12:27:55;6.00;;;1.40;;
1999;SDS011;1001;48.87406500;9.59633600;2022-09-20T12:30:22;2.47;;;1.13;;
1999;SDS011;1001;48.87406500;9.59633600;2022-09-20T12:32:51;4.97;;;1.50;;
1999;SDS011;1001;48.87406500;9.59633600;2022-09-20T12:38:44;4.67;;;1.30;;
1999;SDS011;1001;48.87406500;9.59633600;2022-09-20T12:41:14;6.80;;;1.70;;
1999;SDS011;1001;48.87406500;9.59633600;2022-09-20T12:43:53;3.80;;;1.53;;
1999;SDS011;1001;48.87406500;9.59633600;2022-09-20T12:46:33;7.93;;;1.80;;
1999;SDS011;1001;48.87406500;9.59633600;2022-09-20T12:52:23;4.43;;;1.60;;
1999;SDS011;1001;48.87406500;9.59633600;2022-09-20T12:55:25;4.47;;;1.70;;
1999;SDS011;1001;48.87406500;9.59633600;2022-09-20T12:58:21;4.63;;;1.60;;
1999;SDS011;1001;48.87406500;9.59633600;2022-09-20T13:00:51;7.00;;;2.33;;
1999;SDS011;1001;48.87406500;9.59633600;2022-09-20T13:10:27;3.10;;;1.37;;
1999;SDS011;1001;48.87406500;9.59633600;2022-09-20T13:13:03;5.77;;;1.80;;
1999;SDS011;1001;48.87406500;9.59633600;2022-09-20T13:15:40;2.80;;;1.73;;
1999;SDS011;1001;48.87406500;9.59633600;2022-09-20T13:18:15;8.90;;;1.70;;
1999;SDS011;1001;48.87406500;9.59633600;2022-09-20T13:20:43;2.73;;;1.37;;
1999;SDS011;1001;48.87406500;9.59633600;2022-09-20T13:23:15;8.13;;;1.50;;
1999;SDS011;1001;48.87406500;9.59633600;2022-09-20T13:25:46;2.30;;;1.20;;
1999;SDS011;1001;48.87406500;9.59633600;2022-09-20T13:28:17;4.00;;;1.50;;
1999;SDS011;1001;48.87406500;9.59633600;2022-09-20T13:31:01;3.70;;;1.70;;
1999;SDS011;1001;48.87406500;9.59633600;2022-09-20T13:33:43;3.80;;;1.80;;
1999;SDS011;1001;48.87406500;9.59633600;2022-09-20T13:36:09;3.23;;;1.20;;
1999;SDS011;1001;48.87406500;9.59633600;2022-09-20T13:38:36;4.20;;;1.77;;
1999;SDS011;1001;48.87406500;9.59633600;2022-09-20T13:41:04;2.80;;;1.83;;
1999;SDS011;1001;48.87406500;9.59633600;2022-09-20T13:43:35;3.83;;;2.10;;
1999;SDS011;1001;48.87406500;9.59633600;2022-09-20T13:46:06;5.63;;;1.43;;
1999;SDS011;1001;48.87406500;9.59633600;2022-09-20T13:48:33;3.60;;;1.93;;
1999;SDS011;1001;48.87406500;9.59633600;2022-09-20T13:51:02;4.27;;;2.50;;
1999;SDS011;1001;48.87406500;9.59633600;2022-09-20T13:53:28;2.77;;;1.57;;
1999;SDS011;1001;48.87406500;9.59633600;2022-09-20T13:55:55;3.30;;;1.80;;
1999;SDS011;1001;48.87406500;9.59633600;2022-09-20T13:58:23;7.73;;;1.70;;
1999;SDS011;1001;48.87406500;9.59633600;2022-09-20T14:00:52;5.20;;;1.57;;
1999;SDS011;1001;48.87406500;9.59633600;2022-09-20T14:03:21;2.43;;;1.30;;
1999;SDS011;1001;48.87406500;9.59633600;2022-09-20T14:05:51;4.90;;;1.57;;
1999;SDS011;1001;48.87406500;9.59633600;2022-09-20T14:08:22;2.43;;;1.47;;
1999;SDS011;1001;48.87406500;9.59633600;2022-09-20T14:11:01;2.20;;;1.70;;
1999;SDS011;1001;48.87406500;9.59633600;2022-09-20T14:13:32;3.43;;;1.53;;
1999;SDS011;1001;48.87406500;9.59633600;2022-09-20T14:16:02;6.30;;;1.63;;
1999;SDS011;1001;48.87406500;9.59633600;2022-09-20T14:18:30;2.73;;;1.10;;
1999;SDS011;1001;48.87406500;9.59633600;2022-09-20T14:20:58;3.40;;;1.37;;
1999;SDS011;1001;48.87406500;9.59633600;2022-09-20T14:23:28;4.73;;;1.50;;
1999;SDS011;1001;48.87406500;9.59633600;2022-09-20T14:26:04;2.97;;;1.30;;
1999;SDS011;1001;48.87406500;9.59633600;2022-09-20T14:28:32;2.00;;;1.07;;
1999;SDS011;1001;48.87406500;9.59633600;2022-09-20T14:31:03;11.03;;;1.87;;
1999;SDS011;1001;48.87406500;9.59633600;2022-09-20T14:33:34;3.33;;;1.50;;